Time;durP1;ratioP1;P1;durP2;ratioP2;P2;SDS_P1;SDS_P2;PMS_P1;PMS_P2;Temp;Humidity;BMP_temperature;BMP_pressure;BME280_temperature;BME280_humidity;BME280_pressure;Samples;Min_cycle;Max_cycle;Signal;HPM_P1;HPM_P2
2021/07/31 00:01:15;;;;;;;;;;;23.50;57.80;;;;;;492644;241;1206;-70
2021/07/31 00:03:16;;;;;;;;;;;23.50;57.80;;;;;;492612;241;1089;-70
2021/07/31 00:05:18;;;;;;;;;;;23.40;57.70;;;;;;492722;241;1527;-70
2021/07/31 00:07:19;;;;;;;;;;;23.40;57.80;;;;;;492672;241;1127;-70
2021/07/31 00:09:20;;;;;;;;;;;23.40;57.80;;;;;;492757;241;1153;-70
2021/07/31 00:11:22;;;;;;;;;;;23.40;57.80;;;;;;492701;241;1113;-70
2021/07/31 00:13:23;;;;;;;;;;;23.40;57.80;;;;;;492623;241;1080;-70
2021/07/31 00:15:25;;;;;;;;;;;23.50;57.80;;;;;;492698;241;1205;-70
2021/07/31 00:17:26;;;;;;;;;;;23.50;57.80;;;;;;492680;241;1102;-70
2021/07/31 00:19:27;;;;;;;;;;;23.40;57.80;;;;;;492781;241;2200;-70
2021/07/31 00:21:29;;;;;;;;;;;23.50;57.80;;;;;;492642;241;1291;-70
2021/07/31 00:23:30;;;;;;;;;;;23.50;57.70;;;;;;492653;241;1114;-70
2021/07/31 00:25:31;;;;;;;;;;;23.50;57.70;;;;;;492655;241;1037;-70
2021/07/31 00:27:32;;;;;;;;;;;23.50;57.70;;;;;;492615;241;1195;-70
2021/07/31 00:29:34;;;;;;;;;;;23.50;57.70;;;;;;492732;241;1127;-69
2021/07/31 00:31:35;;;;;;;;;;;23.50;57.70;;;;;;492678;241;1044;-70
2021/07/31 00:33:36;;;;;;;;;;;23.50;57.70;;;;;;492625;241;1275;-70
2021/07/31 00:35:38;;;;;;;;;;;23.40;57.70;;;;;;492771;241;1156;-70
2021/07/31 00:37:39;;;;;;;;;;;23.40;57.80;;;;;;492634;241;1186;-70
2021/07/31 00:39:40;;;;;;;;;;;23.40;57.80;;;;;;492691;241;2136;-70
2021/07/31 00:41:42;;;;;;;;;;;23.40;57.80;;;;;;492691;241;1124;-70
2021/07/31 00:43:43;;;;;;;;;;;23.40;57.70;;;;;;492602;241;1059;-70
2021/07/31 00:45:44;;;;;;;;;;;23.40;57.70;;;;;;492684;241;1009;-70
2021/07/31 00:47:46;;;;;;;;;;;23.40;57.80;;;;;;492625;241;1082;-70
2021/07/31 00:49:47;;;;;;;;;;;23.40;57.70;;;;;;492834;241;1062;-70
2021/07/31 00:51:49;;;;;;;;;;;23.40;57.80;;;;;;492671;241;1162;-70
2021/07/31 00:53:50;;;;;;;;;;;23.40;57.70;;;;;;492703;241;1068;-70
2021/07/31 00:55:53;;;;;;;;;;;23.40;57.70;;;;;;492693;241;1101;-70
2021/07/31 00:57:53;;;;;;;;;;;23.40;57.70;;;;;;492603;242;1298;-69
2021/07/31 00:59:54;;;;;;;;;;;23.40;57.80;;;;;;492667;241;2196;-70
2021/07/31 01:01:55;;;;;;;;;;;23.40;57.80;;;;;;492745;241;1044;-70
2021/07/31 01:03:57;;;;;;;;;;;23.50;57.60;;;;;;492656;241;1117;-70
2021/07/31 01:05:58;;;;;;;;;;;23.40;57.60;;;;;;492723;241;1317;-70
2021/07/31 01:07:59;;;;;;;;;;;23.50;57.60;;;;;;492671;241;1111;-70
2021/07/31 01:10:01;;;;;;;;;;;23.40;57.60;;;;;;492845;241;1096;-70
2021/07/31 01:12:02;;;;;;;;;;;23.40;57.60;;;;;;492558;241;1275;-70
2021/07/31 01:14:03;;;;;;;;;;;23.40;57.80;;;;;;492594;241;1145;-70
2021/07/31 01:16:05;;;;;;;;;;;23.40;57.70;;;;;;492583;241;1031;-70
2021/07/31 01:18:06;;;;;;;;;;;23.40;57.70;;;;;;492700;241;1047;-70
2021/07/31 01:20:08;;;;;;;;;;;23.40;57.60;;;;;;492721;241;2160;-70
2021/07/31 01:22:09;;;;;;;;;;;23.50;57.60;;;;;;492735;241;1115;-69
2021/07/31 01:24:10;;;;;;;;;;;23.70;57.20;;;;;;492619;241;1040;-69
2021/07/31 01:26:12;;;;;;;;;;;23.50;57.40;;;;;;492710;241;1030;-70
2021/07/31 01:28:13;;;;;;;;;;;23.40;57.40;;;;;;492583;241;1076;-70
2021/07/31 01:30:14;;;;;;;;;;;23.40;57.50;;;;;;492677;241;1052;-70
2021/07/31 01:32:15;;;;;;;;;;;23.40;57.70;;;;;;492651;241;1055;-70
2021/07/31 01:34:17;;;;;;;;;;;23.40;57.70;;;;;;492675;241;1056;-70
2021/07/31 01:36:18;;;;;;;;;;;23.40;57.70;;;;;;492663;241;1179;-70
2021/07/31 01:38:20;;;;;;;;;;;23.40;57.60;;;;;;492672;241;1045;-70
2021/07/31 01:40:21;;;;;;;;;;;23.40;57.60;;;;;;492631;241;2140;-70
2021/07/31 01:42:22;;;;;;;;;;;23.40;57.60;;;;;;492599;241;1248;-70
2021/07/31 01:44:23;;;;;;;;;;;23.40;57.50;;;;;;492659;241;1147;-70
2021/07/31 01:46:25;;;;;;;;;;;23.40;57.60;;;;;;492781;241;1042;-70
2021/07/31 01:48:26;;;;;;;;;;;23.40;57.50;;;;;;492752;241;1191;-70
2021/07/31 01:50:27;;;;;;;;;;;23.40;57.60;;;;;;492709;241;1052;-70
2021/07/31 01:52:29;;;;;;;;;;;23.40;57.60;;;;;;492627;241;1232;-70
2021/07/31 01:54:30;;;;;;;;;;;23.40;57.70;;;;;;492527;241;968;-70
2021/07/31 01:56:31;;;;;;;;;;;23.50;57.60;;;;;;492497;241;1003;-70
2021/07/31 01:58:33;;;;;;;;;;;23.40;57.70;;;;;;492706;241;1025;-70
2021/07/31 02:00:34;;;;;;;;;;;23.40;57.60;;;;;;492826;241;2182;-70
2021/07/31 02:02:35;;;;;;;;;;;23.40;57.50;;;;;;492649;241;1068;-70
2021/07/31 02:04:37;;;;;;;;;;;23.40;57.50;;;;;;492661;241;991;-69
2021/07/31 02:06:38;;;;;;;;;;;23.40;57.60;;;;;;492667;241;1080;-70
2021/07/31 02:08:39;;;;;;;;;;;23.40;57.60;;;;;;492733;241;1059;-70
2021/07/31 02:10:41;;;;;;;;;;;23.40;57.50;;;;;;492811;241;1066;-70
2021/07/31 02:12:42;;;;;;;;;;;23.40;57.60;;;;;;492697;241;1051;-70
2021/07/31 02:14:43;;;;;;;;;;;23.40;57.70;;;;;;492776;241;1040;-70
2021/07/31 02:16:45;;;;;;;;;;;23.30;57.60;;;;;;492698;241;1113;-70
2021/07/31 02:18:46;;;;;;;;;;;23.30;57.60;;;;;;492756;241;1047;-70
2021/07/31 02:20:47;;;;;;;;;;;23.30;57.60;;;;;;492687;241;2183;-70
2021/07/31 02:22:48;;;;;;;;;;;23.30;57.70;;;;;;492763;241;1156;-70
2021/07/31 02:24:50;;;;;;;;;;;23.30;57.70;;;;;;492704;241;1058;-70
2021/07/31 02:26:51;;;;;;;;;;;23.40;57.80;;;;;;492661;241;1037;-70
2021/07/31 02:28:52;;;;;;;;;;;23.30;57.70;;;;;;492728;241;1047;-70
2021/07/31 02:30:54;;;;;;;;;;;23.40;57.80;;;;;;492674;241;1125;-70
2021/07/31 02:32:55;;;;;;;;;;;23.30;57.80;;;;;;492684;241;1060;-70
2021/07/31 02:34:56;;;;;;;;;;;23.30;57.80;;;;;;492740;241;1109;-70
2021/07/31 02:36:58;;;;;;;;;;;23.30;57.70;;;;;;492598;241;1341;-70
2021/07/31 02:38:59;;;;;;;;;;;23.30;57.70;;;;;;492678;241;1060;-70
2021/07/31 02:41:00;;;;;;;;;;;23.30;57.80;;;;;;492744;241;2195;-70
2021/07/31 02:43:02;;;;;;;;;;;23.30;57.80;;;;;;492688;241;1086;-70
2021/07/31 02:45:03;;;;;;;;;;;23.40;57.60;;;;;;492943;241;1055;-70
2021/07/31 02:47:06;;;;;;;;;;;23.30;57.70;;;;;;492668;241;1050;-70
2021/07/31 02:49:06;;;;;;;;;;;23.30;57.80;;;;;;492634;241;1487;-70
2021/07/31 02:51:07;;;;;;;;;;;23.30;57.80;;;;;;492682;241;1017;-70
2021/07/31 02:53:08;;;;;;;;;;;23.30;57.90;;;;;;492688;241;1203;-70
2021/07/31 02:55:10;;;;;;;;;;;23.30;57.80;;;;;;492689;241;1052;-69
2021/07/31 02:57:11;;;;;;;;;;;23.30;57.80;;;;;;492772;241;1067;-70
2021/07/31 02:59:12;;;;;;;;;;;23.30;57.90;;;;;;492707;241;1117;-69
2021/07/31 03:01:14;;;;;;;;;;;23.30;57.70;;;;;;492669;241;2148;-70
2021/07/31 03:03:15;;;;;;;;;;;23.40;57.50;;;;;;492747;241;1029;-70
2021/07/31 03:05:16;;;;;;;;;;;23.30;57.60;;;;;;492825;241;1045;-70
2021/07/31 03:07:17;;;;;;;;;;;23.30;57.70;;;;;;492662;241;1331;-70
2021/07/31 03:09:19;;;;;;;;;;;23.30;57.70;;;;;;492715;241;1054;-70
2021/07/31 03:11:22;;;;;;;;;;;23.30;57.70;;;;;;492683;241;1052;-70
2021/07/31 03:13:21;;;;;;;;;;;23.30;57.90;;;;;;492541;242;1469;-70
2021/07/31 03:15:23;;;;;;;;;;;23.30;57.90;;;;;;492742;241;1040;-70
2021/07/31 03:17:24;;;;;;;;;;;23.20;57.90;;;;;;492651;241;1112;-70
2021/07/31 03:19:25;;;;;;;;;;;23.20;58.00;;;;;;492708;241;1072;-70
2021/07/31 03:21:27;;;;;;;;;;;23.30;58.10;;;;;;492625;241;2175;-70
2021/07/31 03:23:29;;;;;;;;;;;23.20;57.90;;;;;;492735;241;1202;-70
2021/07/31 03:25:30;;;;;;;;;;;23.20;57.90;;;;;;492655;241;1060;-70
2021/07/31 03:27:31;;;;;;;;;;;23.20;58.10;;;;;;492724;241;1059;-70
2021/07/31 03:29:33;;;;;;;;;;;23.20;58.00;;;;;;492787;241;1081;-70
2021/07/31 03:31:34;;;;;;;;;;;23.20;57.90;;;;;;492679;241;1064;-70
2021/07/31 03:33:36;;;;;;;;;;;23.20;58.00;;;;;;492840;241;1030;-70
2021/07/31 03:35:37;;;;;;;;;;;23.20;58.00;;;;;;492712;241;1049;-70
2021/07/31 03:37:38;;;;;;;;;;;23.30;57.80;;;;;;492644;241;1329;-70
2021/07/31 03:39:40;;;;;;;;;;;23.20;58.00;;;;;;492644;241;1107;-70
2021/07/31 03:41:41;;;;;;;;;;;23.20;57.90;;;;;;492685;241;2183;-70
2021/07/31 03:43:42;;;;;;;;;;;23.30;57.80;;;;;;492754;241;1032;-70
2021/07/31 03:45:44;;;;;;;;;;;23.30;57.90;;;;;;492736;241;1035;-70
2021/07/31 03:47:45;;;;;;;;;;;23.20;57.90;;;;;;492649;241;1160;-70
2021/07/31 03:49:46;;;;;;;;;;;23.20;58.10;;;;;;492740;241;1031;-70
2021/07/31 03:51:48;;;;;;;;;;;23.10;58.00;;;;;;492726;241;1143;-70
2021/07/31 03:53:49;;;;;;;;;;;23.20;58.00;;;;;;492803;241;1137;-70
2021/07/31 03:55:50;;;;;;;;;;;23.10;58.10;;;;;;492700;241;1110;-70
2021/07/31 03:57:52;;;;;;;;;;;23.10;58.10;;;;;;492631;241;1042;-70
2021/07/31 03:59:53;;;;;;;;;;;23.20;58.10;;;;;;492711;241;1014;-70
2021/07/31 04:01:56;;;;;;;;;;;23.20;58.10;;;;;;492746;241;2144;-70
2021/07/31 04:03:56;;;;;;;;;;;23.10;58.00;;;;;;492912;241;1415;-70
2021/07/31 04:05:58;;;;;;;;;;;23.10;58.00;;;;;;492768;241;1032;-70
2021/07/31 04:07:59;;;;;;;;;;;23.20;58.00;;;;;;492710;241;1259;-70
2021/07/31 04:10:00;;;;;;;;;;;23.20;58.00;;;;;;492747;241;1042;-69
2021/07/31 04:12:02;;;;;;;;;;;23.30;57.80;;;;;;492745;241;1104;-70
2021/07/31 04:14:03;;;;;;;;;;;23.20;57.80;;;;;;492725;241;1054;-70
2021/07/31 04:16:04;;;;;;;;;;;23.20;58.00;;;;;;492781;241;1080;-70
2021/07/31 04:18:05;;;;;;;;;;;23.20;57.70;;;;;;492792;241;1015;-70
2021/07/31 04:20:07;;;;;;;;;;;23.20;57.70;;;;;;492728;241;1304;-69
2021/07/31 04:22:08;;;;;;;;;;;23.30;57.60;;;;;;492624;241;2122;-69
2021/07/31 04:24:09;;;;;;;;;;;23.30;57.70;;;;;;492752;241;1152;-69
2021/07/31 04:26:11;;;;;;;;;;;23.30;57.60;;;;;;492624;241;1163;-69
2021/07/31 04:28:12;;;;;;;;;;;23.30;57.70;;;;;;492752;241;1081;-70
2021/07/31 04:30:13;;;;;;;;;;;23.30;57.60;;;;;;492917;241;1227;-70
2021/07/31 04:32:15;;;;;;;;;;;23.40;57.50;;;;;;492718;241;1146;-69
2021/07/31 04:34:16;;;;;;;;;;;23.40;57.40;;;;;;492718;241;1158;-69
2021/07/31 04:36:17;;;;;;;;;;;23.30;57.50;;;;;;492723;241;1214;-70
2021/07/31 04:38:19;;;;;;;;;;;23.30;57.50;;;;;;492694;241;1178;-69
2021/07/31 04:40:20;;;;;;;;;;;23.40;57.60;;;;;;492876;241;1060;-69
2021/07/31 04:42:21;;;;;;;;;;;23.20;57.70;;;;;;492598;241;2187;-70
2021/07/31 04:44:23;;;;;;;;;;;23.20;57.90;;;;;;492664;242;1255;-70
2021/07/31 04:46:24;;;;;;;;;;;23.10;58.10;;;;;;492689;241;982;-70
2021/07/31 04:48:25;;;;;;;;;;;23.10;58.10;;;;;;492664;241;1236;-70
2021/07/31 04:50:27;;;;;;;;;;;23.10;58.10;;;;;;492724;241;1034;-70
2021/07/31 04:52:28;;;;;;;;;;;23.10;58.30;;;;;;492652;241;1167;-70
2021/07/31 04:54:30;;;;;;;;;;;23.10;58.30;;;;;;492693;241;1225;-70
2021/07/31 04:56:31;;;;;;;;;;;23.10;58.10;;;;;;492638;241;1376;-70
2021/07/31 04:58:32;;;;;;;;;;;23.20;58.10;;;;;;492664;241;1104;-70
2021/07/31 05:00:33;;;;;;;;;;;23.20;58.00;;;;;;492680;241;1046;-70
2021/07/31 05:02:35;;;;;;;;;;;23.20;57.80;;;;;;492715;241;2183;-70
2021/07/31 05:04:36;;;;;;;;;;;23.20;57.90;;;;;;493050;241;1025;-70
2021/07/31 05:06:37;;;;;;;;;;;23.20;58.00;;;;;;492678;241;1120;-70
2021/07/31 05:08:39;;;;;;;;;;;23.10;58.00;;;;;;492723;238;1275;-70
2021/07/31 05:10:40;;;;;;;;;;;23.20;57.90;;;;;;492852;241;1012;-70
2021/07/31 05:12:42;;;;;;;;;;;23.20;58.00;;;;;;492708;241;1040;-70
2021/07/31 05:14:43;;;;;;;;;;;23.20;57.90;;;;;;492752;241;1058;-70
2021/07/31 05:16:44;;;;;;;;;;;23.20;57.90;;;;;;492698;241;1098;-70
2021/07/31 05:18:46;;;;;;;;;;;23.20;57.80;;;;;;492740;241;1070;-70
2021/07/31 05:20:47;;;;;;;;;;;23.20;57.90;;;;;;492696;241;2177;-70
2021/07/31 05:22:48;;;;;;;;;;;23.30;57.70;;;;;;492862;241;1035;-70
2021/07/31 05:24:53;;;;;;;;;;;23.30;57.80;;;;;;492733;241;1177;-70
2021/07/31 05:26:51;;;;;;;;;;;23.20;57.80;;;;;;492377;242;1397;-69
2021/07/31 05:28:52;;;;;;;;;;;23.30;57.70;;;;;;492677;241;1134;-70
2021/07/31 05:30:54;;;;;;;;;;;23.30;57.90;;;;;;492659;241;1159;-70
2021/07/31 05:32:55;;;;;;;;;;;23.20;57.80;;;;;;492704;241;1095;-70
2021/07/31 05:34:56;;;;;;;;;;;23.30;57.80;;;;;;492678;241;1110;-70
2021/07/31 05:36:57;;;;;;;;;;;23.20;57.80;;;;;;492705;241;1250;-70
2021/07/31 05:38:59;;;;;;;;;;;23.30;57.80;;;;;;492742;241;1321;-70
2021/07/31 05:41:00;;;;;;;;;;;23.20;57.90;;;;;;492775;241;2172;-70
2021/07/31 05:43:02;;;;;;;;;;;23.30;57.80;;;;;;492604;241;1134;-70
2021/07/31 05:45:03;;;;;;;;;;;23.30;57.80;;;;;;492654;241;1048;-70
2021/07/31 05:47:04;;;;;;;;;;;23.20;57.80;;;;;;492691;241;1091;-70
2021/07/31 05:49:05;;;;;;;;;;;23.20;57.80;;;;;;492736;241;965;-70
2021/07/31 05:51:07;;;;;;;;;;;23.30;57.80;;;;;;492731;241;1149;-70
2021/07/31 05:53:08;;;;;;;;;;;23.30;57.80;;;;;;492740;241;1134;-70
2021/07/31 05:55:09;;;;;;;;;;;23.20;57.90;;;;;;492672;241;1172;-70
2021/07/31 05:57:11;;;;;;;;;;;23.20;57.90;;;;;;492698;241;1043;-70
2021/07/31 05:59:12;;;;;;;;;;;23.20;57.80;;;;;;492763;241;1182;-70
2021/07/31 06:01:13;;;;;;;;;;;23.20;58.00;;;;;;492689;241;2184;-70
2021/07/31 06:03:15;;;;;;;;;;;23.20;58.10;;;;;;492661;241;1043;-70
2021/07/31 06:05:16;;;;;;;;;;;23.20;58.10;;;;;;492724;241;1060;-70
2021/07/31 06:07:17;;;;;;;;;;;23.20;58.00;;;;;;492677;241;1072;-70
2021/07/31 06:09:19;;;;;;;;;;;23.30;57.90;;;;;;492763;241;1306;-70
2021/07/31 06:11:20;;;;;;;;;;;23.20;57.90;;;;;;492725;241;1158;-70
2021/07/31 06:13:21;;;;;;;;;;;23.20;58.00;;;;;;492692;241;1063;-70
2021/07/31 06:15:23;;;;;;;;;;;23.30;57.80;;;;;;492683;241;1041;-70
2021/07/31 06:17:24;;;;;;;;;;;23.20;57.80;;;;;;492661;241;1046;-70
2021/07/31 06:19:25;;;;;;;;;;;23.20;57.80;;;;;;492785;241;1042;-70
2021/07/31 06:21:26;;;;;;;;;;;23.20;58.10;;;;;;492667;241;2203;-69
2021/07/31 06:23:28;;;;;;;;;;;23.20;58.10;;;;;;492648;241;1098;-70
2021/07/31 06:25:29;;;;;;;;;;;23.20;58.10;;;;;;492698;241;1205;-70
2021/07/31 06:27:30;;;;;;;;;;;23.20;58.20;;;;;;492645;241;1197;-70
2021/07/31 06:29:32;;;;;;;;;;;23.20;58.20;;;;;;492942;241;1032;-70
2021/07/31 06:31:33;;;;;;;;;;;23.20;58.10;;;;;;492687;241;1071;-70
2021/07/31 06:33:34;;;;;;;;;;;23.20;58.20;;;;;;492726;241;1110;-70
2021/07/31 06:35:36;;;;;;;;;;;23.20;58.20;;;;;;492759;241;1121;-70
2021/07/31 06:37:37;;;;;;;;;;;23.20;58.10;;;;;;492687;241;1067;-70
2021/07/31 06:39:38;;;;;;;;;;;23.20;58.10;;;;;;492676;241;1169;-70
2021/07/31 06:41:40;;;;;;;;;;;23.10;58.30;;;;;;492634;241;2196;-70
2021/07/31 06:43:41;;;;;;;;;;;23.10;58.30;;;;;;492650;241;1071;-70
2021/07/31 06:45:42;;;;;;;;;;;23.10;58.30;;;;;;492753;241;1061;-70
2021/07/31 06:47:44;;;;;;;;;;;23.10;58.40;;;;;;492669;241;1059;-70
2021/07/31 06:49:45;;;;;;;;;;;23.10;58.30;;;;;;492847;241;1071;-70
2021/07/31 06:51:47;;;;;;;;;;;23.10;58.50;;;;;;492642;241;1091;-70
2021/07/31 06:53:49;;;;;;;;;;;23.10;58.50;;;;;;492665;241;1192;-70
2021/07/31 06:55:50;;;;;;;;;;;23.10;58.30;;;;;;492876;241;1336;-70
2021/07/31 06:57:51;;;;;;;;;;;23.20;58.30;;;;;;492663;241;1043;-70
2021/07/31 06:59:52;;;;;;;;;;;23.10;58.40;;;;;;492758;241;1057;-70
2021/07/31 07:01:54;;;;;;;;;;;23.20;58.30;;;;;;492651;241;2192;-70
2021/07/31 07:03:55;;;;;;;;;;;23.20;58.20;;;;;;492819;241;1044;-70
2021/07/31 07:05:57;;;;;;;;;;;23.20;58.10;;;;;;492703;241;1315;-70
2021/07/31 07:07:58;;;;;;;;;;;23.20;58.20;;;;;;492861;241;1125;-69
2021/07/31 07:09:59;;;;;;;;;;;23.10;58.30;;;;;;492777;241;1178;-70
2021/07/31 07:12:00;;;;;;;;;;;23.10;58.30;;;;;;492875;241;1081;-70
2021/07/31 07:14:02;;;;;;;;;;;23.20;58.30;;;;;;492696;241;1013;-70
2021/07/31 07:16:03;;;;;;;;;;;23.10;58.30;;;;;;492686;241;1069;-70
2021/07/31 07:18:04;;;;;;;;;;;23.10;58.30;;;;;;492617;241;1216;-69
2021/07/31 07:20:06;;;;;;;;;;;23.20;58.40;;;;;;492663;241;1043;-70
2021/07/31 07:22:07;;;;;;;;;;;23.10;58.50;;;;;;492768;241;2132;-70
2021/07/31 07:24:08;;;;;;;;;;;23.10;58.30;;;;;;492858;241;1044;-70
2021/07/31 07:26:10;;;;;;;;;;;23.20;58.30;;;;;;492797;241;1168;-70
2021/07/31 07:28:11;;;;;;;;;;;23.20;58.40;;;;;;492774;241;1230;-70
2021/07/31 07:30:12;;;;;;;;;;;23.20;58.30;;;;;;492669;241;1043;-70
2021/07/31 07:32:14;;;;;;;;;;;23.20;58.30;;;;;;492761;241;1228;-70
2021/07/31 07:34:15;;;;;;;;;;;23.20;58.30;;;;;;492735;241;1083;-70
2021/07/31 07:36:16;;;;;;;;;;;23.30;58.30;;;;;;492859;241;1052;-69
2021/07/31 07:38:18;;;;;;;;;;;23.10;58.30;;;;;;492671;241;1018;-69
2021/07/31 07:40:19;;;;;;;;;;;23.10;58.50;;;;;;492661;241;1146;-70
2021/07/31 07:42:21;;;;;;;;;;;23.10;58.60;;;;;;492595;241;2183;-70
2021/07/31 07:44:22;;;;;;;;;;;23.10;58.70;;;;;;492793;241;1117;-70
2021/07/31 07:46:23;;;;;;;;;;;23.10;58.50;;;;;;492666;241;1140;-70
2021/07/31 07:48:24;;;;;;;;;;;23.10;58.50;;;;;;492834;241;1032;-70
2021/07/31 07:50:26;;;;;;;;;;;23.30;58.40;;;;;;492739;241;1076;-70
2021/07/31 07:52:27;;;;;;;;;;;23.20;58.30;;;;;;492671;241;1076;-70
2021/07/31 07:54:29;;;;;;;;;;;23.20;58.50;;;;;;492879;241;1019;-70
2021/07/31 07:56:30;;;;;;;;;;;23.20;58.40;;;;;;492635;241;1420;-70
2021/07/31 07:58:31;;;;;;;;;;;23.20;58.40;;;;;;492716;241;1084;-70
2021/07/31 08:00:32;;;;;;;;;;;23.20;58.20;;;;;;492656;241;1009;-70
2021/07/31 08:02:34;;;;;;;;;;;23.20;58.30;;;;;;492611;241;2186;-70
2021/07/31 08:04:35;;;;;;;;;;;23.20;58.10;;;;;;492760;241;1058;-70
2021/07/31 08:06:36;;;;;;;;;;;23.30;58.10;;;;;;492613;241;1152;-70
2021/07/31 08:08:38;;;;;;;;;;;23.10;58.30;;;;;;492726;241;1070;-70
2021/07/31 08:10:39;;;;;;;;;;;23.20;58.20;;;;;;492744;241;1170;-70
2021/07/31 08:12:40;;;;;;;;;;;23.20;58.30;;;;;;492715;241;1286;-70
2021/07/31 08:14:42;;;;;;;;;;;23.10;58.40;;;;;;492641;241;1054;-70
2021/07/31 08:16:43;;;;;;;;;;;23.30;58.00;;;;;;492593;241;1044;-70
2021/07/31 08:18:44;;;;;;;;;;;23.20;58.10;;;;;;492649;241;1026;-70
2021/07/31 08:20:46;;;;;;;;;;;23.20;58.10;;;;;;492818;241;1033;-70
2021/07/31 08:22:47;;;;;;;;;;;23.20;58.20;;;;;;492698;241;2184;-70
2021/07/31 08:24:48;;;;;;;;;;;23.30;58.10;;;;;;492849;241;1040;-70
2021/07/31 08:26:50;;;;;;;;;;;23.20;58.10;;;;;;492684;241;1185;-70
2021/07/31 08:28:51;;;;;;;;;;;23.20;58.20;;;;;;492631;241;1172;-70
2021/07/31 08:30:52;;;;;;;;;;;23.30;58.20;;;;;;492639;241;1048;-70
2021/07/31 08:32:53;;;;;;;;;;;23.20;58.10;;;;;;492641;241;1129;-70
2021/07/31 08:34:55;;;;;;;;;;;23.30;58.20;;;;;;492737;241;1046;-70
2021/07/31 08:36:56;;;;;;;;;;;23.20;58.10;;;;;;492683;241;1080;-70
2021/07/31 08:38:57;;;;;;;;;;;23.30;58.20;;;;;;492711;241;1097;-70
2021/07/31 08:40:59;;;;;;;;;;;23.20;58.30;;;;;;492748;241;1190;-70
2021/07/31 08:43:00;;;;;;;;;;;23.20;58.20;;;;;;492805;241;2191;-70
2021/07/31 08:45:01;;;;;;;;;;;23.20;58.10;;;;;;492736;241;1036;-70
2021/07/31 08:47:03;;;;;;;;;;;23.20;58.20;;;;;;492613;241;1046;-70
2021/07/31 08:49:04;;;;;;;;;;;23.20;58.10;;;;;;492642;241;1128;-70
2021/07/31 08:51:05;;;;;;;;;;;23.20;58.10;;;;;;492630;241;1083;-70
2021/07/31 08:53:07;;;;;;;;;;;23.20;58.10;;;;;;492643;241;1089;-70
2021/07/31 08:55:08;;;;;;;;;;;23.20;58.10;;;;;;492708;238;1227;-70
2021/07/31 08:57:11;;;;;;;;;;;23.30;58.10;;;;;;492706;241;1183;-70
2021/07/31 08:59:11;;;;;;;;;;;23.30;58.10;;;;;;492591;242;1417;-70
2021/07/31 09:01:12;;;;;;;;;;;23.30;58.10;;;;;;492651;241;1022;-70
2021/07/31 09:03:15;;;;;;;;;;;23.20;58.30;;;;;;492716;241;2145;-70
2021/07/31 09:05:15;;;;;;;;;;;23.30;58.20;;;;;;492624;241;1404;-70
2021/07/31 09:07:16;;;;;;;;;;;23.30;58.20;;;;;;492676;241;1045;-70
2021/07/31 09:09:17;;;;;;;;;;;23.20;58.20;;;;;;492778;241;1040;-70
2021/07/31 09:11:19;;;;;;;;;;;23.20;58.30;;;;;;492676;241;1120;-70
2021/07/31 09:13:20;;;;;;;;;;;23.20;58.20;;;;;;492730;241;1058;-70
2021/07/31 09:15:21;;;;;;;;;;;23.20;58.20;;;;;;492720;241;1039;-70
2021/07/31 09:17:23;;;;;;;;;;;23.20;58.10;;;;;;492715;241;1084;-70
2021/07/31 09:19:26;;;;;;;;;;;23.20;58.20;;;;;;492771;241;1071;-70
2021/07/31 09:21:26;;;;;;;;;;;23.20;58.20;;;;;;492664;241;1471;-70
2021/07/31 09:23:28;;;;;;;;;;;23.20;58.30;;;;;;492851;241;2187;-70
2021/07/31 09:25:29;;;;;;;;;;;23.10;58.40;;;;;;492693;241;937;-70
2021/07/31 09:27:30;;;;;;;;;;;23.10;58.40;;;;;;492678;241;1181;-70
2021/07/31 09:29:32;;;;;;;;;;;23.10;58.40;;;;;;492625;241;1066;-70
2021/07/31 09:31:33;;;;;;;;;;;23.20;58.30;;;;;;492573;241;1083;-70
2021/07/31 09:33:34;;;;;;;;;;;23.20;58.20;;;;;;492684;241;1131;-70
2021/07/31 09:35:36;;;;;;;;;;;23.20;58.20;;;;;;492750;241;1062;-70
2021/07/31 09:37:37;;;;;;;;;;;23.20;58.10;;;;;;492655;241;1037;-70
2021/07/31 09:39:38;;;;;;;;;;;23.20;58.10;;;;;;492683;241;1035;-70
2021/07/31 09:41:40;;;;;;;;;;;23.20;58.10;;;;;;492620;241;1092;-70
2021/07/31 09:43:41;;;;;;;;;;;23.40;57.80;;;;;;492680;241;2134;-70
2021/07/31 09:45:43;;;;;;;;;;;23.30;57.70;;;;;;492607;241;1053;-70
2021/07/31 09:47:44;;;;;;;;;;;23.30;57.70;;;;;;492600;241;1100;-70
2021/07/31 09:49:46;;;;;;;;;;;23.30;57.90;;;;;;492830;241;1255;-70
2021/07/31 09:51:46;;;;;;;;;;;23.30;58.00;;;;;;492596;241;1038;-70
2021/07/31 09:53:48;;;;;;;;;;;23.20;58.00;;;;;;492657;241;1193;-70
2021/07/31 09:55:49;;;;;;;;;;;23.20;58.10;;;;;;492675;241;1053;-70
2021/07/31 09:57:50;;;;;;;;;;;23.20;58.40;;;;;;492717;241;1123;-70
2021/07/31 09:59:52;;;;;;;;;;;23.10;58.30;;;;;;492723;241;1061;-70
2021/07/31 10:01:53;;;;;;;;;;;23.20;58.40;;;;;;492465;241;1241;-70
2021/07/31 10:03:54;;;;;;;;;;;23.20;58.20;;;;;;492615;241;2226;-70
2021/07/31 10:05:56;;;;;;;;;;;23.20;58.10;;;;;;492411;241;1071;-70
2021/07/31 10:07:57;;;;;;;;;;;23.30;58.20;;;;;;492472;241;1189;-70
2021/07/31 10:10:00;;;;;;;;;;;23.10;58.20;;;;;;492515;241;1068;-70
2021/07/31 10:12:00;;;;;;;;;;;23.20;58.20;;;;;;492346;242;1336;-70
2021/07/31 10:14:01;;;;;;;;;;;23.30;58.00;;;;;;492483;241;1102;-70
2021/07/31 10:16:02;;;;;;;;;;;23.30;57.80;;;;;;492430;241;1013;-70
2021/07/31 10:18:04;;;;;;;;;;;23.30;57.90;;;;;;492467;241;1072;-70
2021/07/31 10:20:05;;;;;;;;;;;23.30;57.90;;;;;;492522;241;1037;-70
2021/07/31 10:22:06;;;;;;;;;;;23.30;57.80;;;;;;492526;241;1037;-70
2021/07/31 10:24:08;;;;;;;;;;;23.30;57.80;;;;;;492736;241;2192;-70
2021/07/31 10:26:10;;;;;;;;;;;23.30;57.90;;;;;;492691;241;1038;-70
2021/07/31 10:28:10;;;;;;;;;;;23.20;58.00;;;;;;492674;242;1383;-70
2021/07/31 10:30:12;;;;;;;;;;;23.20;58.10;;;;;;492790;241;1040;-70
2021/07/31 10:32:13;;;;;;;;;;;23.20;58.10;;;;;;492724;241;1162;-70
2021/07/31 10:34:14;;;;;;;;;;;23.10;58.30;;;;;;492756;241;966;-70
2021/07/31 10:36:16;;;;;;;;;;;23.20;58.20;;;;;;492754;241;1041;-71
2021/07/31 10:38:17;;;;;;;;;;;23.20;58.20;;;;;;492706;241;1052;-70
2021/07/31 10:40:18;;;;;;;;;;;23.20;58.10;;;;;;492862;241;1069;-70
2021/07/31 10:42:20;;;;;;;;;;;23.20;58.10;;;;;;492657;241;1176;-70
2021/07/31 10:44:21;;;;;;;;;;;23.20;58.20;;;;;;492698;241;2128;-70
2021/07/31 10:46:25;;;;;;;;;;;23.20;58.20;;;;;;492635;241;1065;-69
2021/07/31 10:48:26;;;;;;;;;;;23.20;58.10;;;;;;492853;241;1171;-69
2021/07/31 10:50:29;;;;;;;;;;;23.10;58.20;;;;;;492728;241;1107;-70
2021/07/31 10:52:29;;;;;;;;;;;23.20;58.10;;;;;;492597;242;1386;-70
2021/07/31 10:54:30;;;;;;;;;;;23.20;58.10;;;;;;492815;241;1174;-70
2021/07/31 10:56:32;;;;;;;;;;;23.20;58.20;;;;;;492670;241;1094;-70
2021/07/31 10:58:33;;;;;;;;;;;23.20;58.10;;;;;;492680;241;1150;-69
2021/07/31 11:00:35;;;;;;;;;;;23.20;58.10;;;;;;492738;241;1090;-69
2021/07/31 11:02:37;;;;;;;;;;;23.20;58.00;;;;;;492688;241;2187;-70
2021/07/31 11:04:38;;;;;;;;;;;23.20;58.10;;;;;;492787;241;1129;-70
2021/07/31 11:06:39;;;;;;;;;;;23.20;57.90;;;;;;492610;241;1329;-70
2021/07/31 11:08:41;;;;;;;;;;;23.20;58.10;;;;;;492607;241;1036;-70
2021/07/31 11:10:45;;;;;;;;;;;23.30;57.90;;;;;;492660;241;1073;-69
2021/07/31 11:12:46;;;;;;;;;;;23.30;58.00;;;;;;492596;241;1197;-70
2021/07/31 11:14:48;;;;;;;;;;;23.30;57.90;;;;;;492735;241;1033;-70
2021/07/31 11:16:49;;;;;;;;;;;23.30;57.80;;;;;;492604;241;1061;-70
2021/07/31 11:18:50;;;;;;;;;;;23.30;57.80;;;;;;492724;241;1100;-70
2021/07/31 11:20:51;;;;;;;;;;;23.20;57.80;;;;;;492629;241;1062;-70
2021/07/31 11:22:53;;;;;;;;;;;23.30;57.80;;;;;;492599;241;2186;-70
2021/07/31 11:24:54;;;;;;;;;;;23.20;57.90;;;;;;492717;241;1079;-69
2021/07/31 11:26:56;;;;;;;;;;;23.30;57.70;;;;;;492657;241;1092;-70
2021/07/31 11:28:57;;;;;;;;;;;23.30;57.80;;;;;;492634;241;1156;-70
2021/07/31 11:30:58;;;;;;;;;;;23.30;57.70;;;;;;492612;241;1103;-70
2021/07/31 11:32:59;;;;;;;;;;;23.30;57.70;;;;;;492588;241;1104;-70
2021/07/31 11:35:01;;;;;;;;;;;23.20;57.80;;;;;;492713;241;1202;-70
2021/07/31 11:37:02;;;;;;;;;;;23.30;57.70;;;;;;492650;241;1077;-69
2021/07/31 11:39:04;;;;;;;;;;;23.30;57.80;;;;;;492687;241;1065;-69
2021/07/31 11:41:05;;;;;;;;;;;23.30;57.70;;;;;;492699;241;1072;-70
2021/07/31 11:43:06;;;;;;;;;;;23.30;57.70;;;;;;492667;241;2179;-70
2021/07/31 11:45:08;;;;;;;;;;;23.30;57.80;;;;;;492633;241;1079;-70
2021/07/31 11:47:09;;;;;;;;;;;23.20;57.80;;;;;;492582;241;1147;-70
2021/07/31 11:49:10;;;;;;;;;;;23.20;57.80;;;;;;492687;241;1057;-70
2021/07/31 11:51:12;;;;;;;;;;;23.40;57.70;;;;;;492879;241;1212;-70
2021/07/31 11:53:13;;;;;;;;;;;23.30;57.70;;;;;;492676;241;1082;-70
2021/07/31 11:55:14;;;;;;;;;;;23.30;57.70;;;;;;492729;241;948;-70
2021/07/31 11:57:16;;;;;;;;;;;23.40;57.70;;;;;;492629;241;1154;-70